sensor_id;sensor_type;location;lat;lon;timestamp;P1;durP1;ratioP1;P2;durP2;ratioP2
22764;SDS011;11549;50.852;3.816;2023-07-22T00:00:49;17.63;;;11.93;;
22764;SDS011;11549;50.852;3.816;2023-07-22T00:03:17;17.38;;;11.45;;
22764;SDS011;11549;50.852;3.816;2023-07-22T00:05:47;16.13;;;11.15;;
22764;SDS011;11549;50.852;3.816;2023-07-22T00:08:16;17.02;;;10.73;;
22764;SDS011;11549;50.852;3.816;2023-07-22T00:10:44;16.15;;;10.80;;
22764;SDS011;11549;50.852;3.816;2023-07-22T00:13:13;17.55;;;11.30;;
22764;SDS011;11549;50.852;3.816;2023-07-22T00:15:41;19.60;;;11.45;;
22764;SDS011;11549;50.852;3.816;2023-07-22T00:18:10;19.75;;;11.25;;
22764;SDS011;11549;50.852;3.816;2023-07-22T00:20:39;14.30;;;9.38;;
22764;SDS011;11549;50.852;3.816;2023-07-22T00:23:08;15.55;;;10.77;;
22764;SDS011;11549;50.852;3.816;2023-07-22T00:25:37;17.92;;;11.15;;
22764;SDS011;11549;50.852;3.816;2023-07-22T00:28:05;19.27;;;11.25;;
22764;SDS011;11549;50.852;3.816;2023-07-22T00:30:33;19.35;;;11.43;;
22764;SDS011;11549;50.852;3.816;2023-07-22T00:33:04;19.58;;;12.45;;
22764;SDS011;11549;50.852;3.816;2023-07-22T00:35:32;17.33;;;11.50;;
22764;SDS011;11549;50.852;3.816;2023-07-22T00:38:01;17.98;;;10.52;;
22764;SDS011;11549;50.852;3.816;2023-07-22T00:40:31;17.75;;;11.40;;
22764;SDS011;11549;50.852;3.816;2023-07-22T00:43:00;16.92;;;11.20;;
22764;SDS011;11549;50.852;3.816;2023-07-22T00:45:29;15.98;;;11.23;;
22764;SDS011;11549;50.852;3.816;2023-07-22T00:47:57;18.10;;;11.40;;
22764;SDS011;11549;50.852;3.816;2023-07-22T00:50:25;17.27;;;10.88;;
22764;SDS011;11549;50.852;3.816;2023-07-22T00:52:55;17.67;;;11.13;;
22764;SDS011;11549;50.852;3.816;2023-07-22T00:55:23;17.40;;;11.82;;
22764;SDS011;11549;50.852;3.816;2023-07-22T00:57:54;17.45;;;11.32;;
22764;SDS011;11549;50.852;3.816;2023-07-22T01:00:23;18.98;;;11.73;;
22764;SDS011;11549;50.852;3.816;2023-07-22T01:02:51;18.58;;;12.10;;
22764;SDS011;11549;50.852;3.816;2023-07-22T01:05:20;19.25;;;11.55;;
22764;SDS011;11549;50.852;3.816;2023-07-22T01:07:49;19.77;;;12.05;;
22764;SDS011;11549;50.852;3.816;2023-07-22T01:10:17;18.85;;;12.15;;
22764;SDS011;11549;50.852;3.816;2023-07-22T01:12:46;19.10;;;11.70;;
22764;SDS011;11549;50.852;3.816;2023-07-22T01:15:16;16.83;;;11.35;;
22764;SDS011;11549;50.852;3.816;2023-07-22T01:17:45;19.17;;;12.07;;
22764;SDS011;11549;50.852;3.816;2023-07-22T01:20:13;20.73;;;11.95;;
22764;SDS011;11549;50.852;3.816;2023-07-22T01:22:48;17.15;;;11.38;;
22764;SDS011;11549;50.852;3.816;2023-07-22T01:25:19;20.60;;;12.48;;
22764;SDS011;11549;50.852;3.816;2023-07-22T01:27:50;17.65;;;11.32;;
22764;SDS011;11549;50.852;3.816;2023-07-22T01:30:19;17.65;;;11.93;;
22764;SDS011;11549;50.852;3.816;2023-07-22T01:32:47;21.38;;;12.45;;
22764;SDS011;11549;50.852;3.816;2023-07-22T01:35:17;19.70;;;12.35;;
22764;SDS011;11549;50.852;3.816;2023-07-22T01:37:46;20.55;;;12.70;;
22764;SDS011;11549;50.852;3.816;2023-07-22T01:40:15;19.60;;;12.07;;
22764;SDS011;11549;50.852;3.816;2023-07-22T01:42:44;18.63;;;12.32;;
22764;SDS011;11549;50.852;3.816;2023-07-22T01:45:13;20.67;;;12.95;;
22764;SDS011;11549;50.852;3.816;2023-07-22T01:47:42;18.50;;;11.55;;
22764;SDS011;11549;50.852;3.816;2023-07-22T01:50:10;21.35;;;12.73;;
22764;SDS011;11549;50.852;3.816;2023-07-22T01:52:39;20.38;;;12.82;;
22764;SDS011;11549;50.852;3.816;2023-07-22T01:55:08;22.88;;;12.52;;
22764;SDS011;11549;50.852;3.816;2023-07-22T01:57:39;23.13;;;12.73;;
22764;SDS011;11549;50.852;3.816;2023-07-22T02:00:08;22.88;;;12.43;;
22764;SDS011;11549;50.852;3.816;2023-07-22T02:02:37;20.73;;;12.48;;
22764;SDS011;11549;50.852;3.816;2023-07-22T02:05:06;21.00;;;13.02;;
22764;SDS011;11549;50.852;3.816;2023-07-22T02:07:37;24.52;;;13.13;;
22764;SDS011;11549;50.852;3.816;2023-07-22T02:10:05;19.70;;;12.43;;
22764;SDS011;11549;50.852;3.816;2023-07-22T02:12:36;19.13;;;12.27;;
22764;SDS011;11549;50.852;3.816;2023-07-22T02:15:06;23.77;;;12.43;;
22764;SDS011;11549;50.852;3.816;2023-07-22T02:17:35;22.17;;;12.35;;
22764;SDS011;11549;50.852;3.816;2023-07-22T02:20:04;21.63;;;12.25;;
22764;SDS011;11549;50.852;3.816;2023-07-22T02:22:35;24.77;;;13.40;;
22764;SDS011;11549;50.852;3.816;2023-07-22T02:25:04;23.40;;;13.10;;
22764;SDS011;11549;50.852;3.816;2023-07-22T02:27:34;20.08;;;12.80;;
22764;SDS011;11549;50.852;3.816;2023-07-22T02:30:02;24.50;;;13.50;;
22764;SDS011;11549;50.852;3.816;2023-07-22T02:32:33;21.52;;;12.75;;
22764;SDS011;11549;50.852;3.816;2023-07-22T02:35:01;19.02;;;11.98;;
22764;SDS011;11549;50.852;3.816;2023-07-22T02:37:30;21.38;;;12.02;;
22764;SDS011;11549;50.852;3.816;2023-07-22T02:39:58;18.10;;;11.70;;
22764;SDS011;11549;50.852;3.816;2023-07-22T02:42:26;17.55;;;11.43;;
22764;SDS011;11549;50.852;3.816;2023-07-22T02:44:55;18.23;;;11.73;;
22764;SDS011;11549;50.852;3.816;2023-07-22T02:47:23;22.48;;;13.63;;
22764;SDS011;11549;50.852;3.816;2023-07-22T02:49:53;21.35;;;11.98;;
22764;SDS011;11549;50.852;3.816;2023-07-22T02:52:21;22.27;;;12.45;;
22764;SDS011;11549;50.852;3.816;2023-07-22T02:55:03;22.30;;;13.27;;
22764;SDS011;11549;50.852;3.816;2023-07-22T02:57:33;18.98;;;12.43;;
22764;SDS011;11549;50.852;3.816;2023-07-22T03:00:02;21.40;;;13.00;;
22764;SDS011;11549;50.852;3.816;2023-07-22T03:02:33;21.20;;;13.18;;
22764;SDS011;11549;50.852;3.816;2023-07-22T03:05:04;21.25;;;13.43;;
22764;SDS011;11549;50.852;3.816;2023-07-22T03:07:35;22.75;;;13.55;;
22764;SDS011;11549;50.852;3.816;2023-07-22T03:10:04;20.77;;;13.02;;
22764;SDS011;11549;50.852;3.816;2023-07-22T03:12:33;23.95;;;13.57;;
22764;SDS011;11549;50.852;3.816;2023-07-22T03:15:03;25.45;;;14.93;;
22764;SDS011;11549;50.852;3.816;2023-07-22T03:17:36;22.27;;;14.57;;
22764;SDS011;11549;50.852;3.816;2023-07-22T03:20:06;21.70;;;14.70;;
22764;SDS011;11549;50.852;3.816;2023-07-22T03:22:40;25.33;;;14.70;;
22764;SDS011;11549;50.852;3.816;2023-07-22T03:25:08;23.73;;;14.30;;
22764;SDS011;11549;50.852;3.816;2023-07-22T03:27:37;22.77;;;14.95;;
22764;SDS011;11549;50.852;3.816;2023-07-22T03:30:06;24.98;;;15.27;;
22764;SDS011;11549;50.852;3.816;2023-07-22T03:32:37;24.98;;;13.55;;
22764;SDS011;11549;50.852;3.816;2023-07-22T03:35:07;23.63;;;14.80;;
22764;SDS011;11549;50.852;3.816;2023-07-22T03:37:38;24.58;;;13.98;;
22764;SDS011;11549;50.852;3.816;2023-07-22T03:40:07;22.77;;;13.85;;
22764;SDS011;11549;50.852;3.816;2023-07-22T03:42:40;23.23;;;13.82;;
22764;SDS011;11549;50.852;3.816;2023-07-22T03:45:09;23.08;;;13.60;;
22764;SDS011;11549;50.852;3.816;2023-07-22T03:47:38;24.05;;;14.70;;
22764;SDS011;11549;50.852;3.816;2023-07-22T03:50:08;29.15;;;13.50;;
22764;SDS011;11549;50.852;3.816;2023-07-22T03:52:37;24.00;;;13.55;;
22764;SDS011;11549;50.852;3.816;2023-07-22T03:55:05;26.02;;;14.43;;
22764;SDS011;11549;50.852;3.816;2023-07-22T03:57:34;25.08;;;14.07;;
22764;SDS011;11549;50.852;3.816;2023-07-22T04:00:02;20.73;;;12.95;;
22764;SDS011;11549;50.852;3.816;2023-07-22T04:02:32;23.20;;;13.50;;
22764;SDS011;11549;50.852;3.816;2023-07-22T04:05:00;23.20;;;13.60;;
22764;SDS011;11549;50.852;3.816;2023-07-22T04:07:30;29.85;;;14.65;;
22764;SDS011;11549;50.852;3.816;2023-07-22T04:09:58;22.77;;;13.77;;
22764;SDS011;11549;50.852;3.816;2023-07-22T04:12:27;25.98;;;14.63;;
22764;SDS011;11549;50.852;3.816;2023-07-22T04:14:55;22.83;;;14.25;;
22764;SDS011;11549;50.852;3.816;2023-07-22T04:17:24;25.88;;;13.23;;
22764;SDS011;11549;50.852;3.816;2023-07-22T04:19:53;25.88;;;13.75;;
22764;SDS011;11549;50.852;3.816;2023-07-22T04:22:21;25.45;;;15.20;;
22764;SDS011;11549;50.852;3.816;2023-07-22T04:24:51;25.40;;;14.10;;
22764;SDS011;11549;50.852;3.816;2023-07-22T04:27:20;22.52;;;13.75;;
22764;SDS011;11549;50.852;3.816;2023-07-22T04:29:48;26.65;;;15.38;;
22764;SDS011;11549;50.852;3.816;2023-07-22T04:32:17;28.10;;;15.50;;
22764;SDS011;11549;50.852;3.816;2023-07-22T04:34:46;26.50;;;15.68;;
22764;SDS011;11549;50.852;3.816;2023-07-22T04:37:14;25.40;;;14.43;;
22764;SDS011;11549;50.852;3.816;2023-07-22T04:39:46;26.33;;;15.00;;
22764;SDS011;11549;50.852;3.816;2023-07-22T04:42:18;26.10;;;15.07;;
22764;SDS011;11549;50.852;3.816;2023-07-22T04:44:47;25.58;;;15.57;;
22764;SDS011;11549;50.852;3.816;2023-07-22T04:47:15;24.23;;;14.32;;
22764;SDS011;11549;50.852;3.816;2023-07-22T04:49:44;27.08;;;14.70;;
22764;SDS011;11549;50.852;3.816;2023-07-22T04:52:13;24.48;;;14.70;;
22764;SDS011;11549;50.852;3.816;2023-07-22T04:54:41;22.75;;;14.15;;
22764;SDS011;11549;50.852;3.816;2023-07-22T04:57:10;27.65;;;15.65;;
22764;SDS011;11549;50.852;3.816;2023-07-22T04:59:39;28.08;;;15.27;;
22764;SDS011;11549;50.852;3.816;2023-07-22T05:02:08;27.58;;;14.25;;
22764;SDS011;11549;50.852;3.816;2023-07-22T05:04:36;23.15;;;14.13;;
22764;SDS011;11549;50.852;3.816;2023-07-22T05:07:05;26.13;;;14.43;;
22764;SDS011;11549;50.852;3.816;2023-07-22T05:09:33;24.42;;;13.23;;
22764;SDS011;11549;50.852;3.816;2023-07-22T05:12:02;22.00;;;12.82;;
22764;SDS011;11549;50.852;3.816;2023-07-22T05:14:30;22.33;;;12.13;;
22764;SDS011;11549;50.852;3.816;2023-07-22T05:17:00;19.85;;;12.20;;
22764;SDS011;11549;50.852;3.816;2023-07-22T05:19:29;22.42;;;12.68;;
22764;SDS011;11549;50.852;3.816;2023-07-22T05:21:57;19.25;;;11.23;;
22764;SDS011;11549;50.852;3.816;2023-07-22T05:24:26;18.25;;;11.85;;
22764;SDS011;11549;50.852;3.816;2023-07-22T05:26:54;20.38;;;10.98;;
22764;SDS011;11549;50.852;3.816;2023-07-22T05:29:35;20.15;;;11.23;;
22764;SDS011;11549;50.852;3.816;2023-07-22T05:32:05;16.73;;;10.55;;
22764;SDS011;11549;50.852;3.816;2023-07-22T05:34:54;20.95;;;10.82;;
22764;SDS011;11549;50.852;3.816;2023-07-22T05:37:24;20.55;;;10.93;;
22764;SDS011;11549;50.852;3.816;2023-07-22T05:39:52;20.15;;;11.10;;
22764;SDS011;11549;50.852;3.816;2023-07-22T05:42:20;17.88;;;10.25;;
22764;SDS011;11549;50.852;3.816;2023-07-22T05:44:49;20.13;;;10.57;;
22764;SDS011;11549;50.852;3.816;2023-07-22T05:47:18;19.17;;;9.73;;
22764;SDS011;11549;50.852;3.816;2023-07-22T05:49:47;16.75;;;10.82;;
22764;SDS011;11549;50.852;3.816;2023-07-22T05:52:15;14.93;;;9.48;;
22764;SDS011;11549;50.852;3.816;2023-07-22T05:54:44;17.30;;;10.27;;
22764;SDS011;11549;50.852;3.816;2023-07-22T05:57:12;17.67;;;9.93;;
22764;SDS011;11549;50.852;3.816;2023-07-22T05:59:41;18.05;;;9.65;;
22764;SDS011;11549;50.852;3.816;2023-07-22T06:02:12;14.65;;;9.75;;
22764;SDS011;11549;50.852;3.816;2023-07-22T06:04:42;17.52;;;9.70;;
22764;SDS011;11549;50.852;3.816;2023-07-22T06:07:10;17.00;;;9.23;;
22764;SDS011;11549;50.852;3.816;2023-07-22T06:09:39;16.50;;;8.95;;
22764;SDS011;11549;50.852;3.816;2023-07-22T06:12:07;18.25;;;9.43;;
22764;SDS011;11549;50.852;3.816;2023-07-22T06:14:36;16.35;;;8.88;;
22764;SDS011;11549;50.852;3.816;2023-07-22T06:17:04;16.45;;;9.27;;
22764;SDS011;11549;50.852;3.816;2023-07-22T06:19:32;16.83;;;9.95;;
22764;SDS011;11549;50.852;3.816;2023-07-22T06:22:03;14.32;;;8.10;;
22764;SDS011;11549;50.852;3.816;2023-07-22T06:24:31;15.65;;;8.73;;
22764;SDS011;11549;50.852;3.816;2023-07-22T06:26:59;14.73;;;8.57;;
22764;SDS011;11549;50.852;3.816;2023-07-22T06:29:27;17.05;;;8.98;;
22764;SDS011;11549;50.852;3.816;2023-07-22T06:31:56;14.95;;;9.25;;
22764;SDS011;11549;50.852;3.816;2023-07-22T06:34:24;15.32;;;8.88;;
22764;SDS011;11549;50.852;3.816;2023-07-22T06:36:52;18.45;;;8.40;;
22764;SDS011;11549;50.852;3.816;2023-07-22T06:39:22;17.77;;;8.80;;
22764;SDS011;11549;50.852;3.816;2023-07-22T06:41:51;15.77;;;9.20;;
22764;SDS011;11549;50.852;3.816;2023-07-22T06:44:19;14.18;;;8.73;;
22764;SDS011;11549;50.852;3.816;2023-07-22T06:46:47;16.77;;;8.90;;
22764;SDS011;11549;50.852;3.816;2023-07-22T06:49:16;18.48;;;9.45;;
22764;SDS011;11549;50.852;3.816;2023-07-22T06:51:44;16.23;;;7.80;;
22764;SDS011;11549;50.852;3.816;2023-07-22T06:54:13;18.20;;;8.43;;
22764;SDS011;11549;50.852;3.816;2023-07-22T06:56:42;14.27;;;8.02;;
22764;SDS011;11549;50.852;3.816;2023-07-22T06:59:11;14.35;;;7.80;;
22764;SDS011;11549;50.852;3.816;2023-07-22T07:01:39;13.73;;;7.90;;
22764;SDS011;11549;50.852;3.816;2023-07-22T07:04:08;17.02;;;8.05;;
22764;SDS011;11549;50.852;3.816;2023-07-22T07:06:36;13.88;;;7.43;;
22764;SDS011;11549;50.852;3.816;2023-07-22T07:09:05;16.88;;;7.90;;
22764;SDS011;11549;50.852;3.816;2023-07-22T07:11:33;11.63;;;6.85;;
22764;SDS011;11549;50.852;3.816;2023-07-22T07:14:03;14.27;;;7.40;;
22764;SDS011;11549;50.852;3.816;2023-07-22T07:16:31;17.08;;;7.80;;
22764;SDS011;11549;50.852;3.816;2023-07-22T07:19:00;15.82;;;8.02;;
22764;SDS011;11549;50.852;3.816;2023-07-22T07:21:29;13.75;;;7.22;;
22764;SDS011;11549;50.852;3.816;2023-07-22T07:23:57;13.15;;;7.32;;
22764;SDS011;11549;50.852;3.816;2023-07-22T07:26:25;18.52;;;8.00;;
22764;SDS011;11549;50.852;3.816;2023-07-22T07:28:54;15.88;;;7.85;;
22764;SDS011;11549;50.852;3.816;2023-07-22T07:31:24;16.73;;;8.10;;
22764;SDS011;11549;50.852;3.816;2023-07-22T07:33:56;14.75;;;6.80;;
22764;SDS011;11549;50.852;3.816;2023-07-22T07:36:24;13.82;;;7.10;;
22764;SDS011;11549;50.852;3.816;2023-07-22T07:38:53;12.80;;;7.15;;
22764;SDS011;11549;50.852;3.816;2023-07-22T07:41:21;14.20;;;6.68;;
22764;SDS011;11549;50.852;3.816;2023-07-22T07:43:49;16.08;;;7.22;;
22764;SDS011;11549;50.852;3.816;2023-07-22T07:46:22;10.50;;;5.85;;
22764;SDS011;11549;50.852;3.816;2023-07-22T07:48:53;12.45;;;6.63;;
22764;SDS011;11549;50.852;3.816;2023-07-22T07:51:23;14.57;;;6.90;;
22764;SDS011;11549;50.852;3.816;2023-07-22T07:53:53;12.32;;;7.10;;
22764;SDS011;11549;50.852;3.816;2023-07-22T07:56:22;10.50;;;5.85;;
22764;SDS011;11549;50.852;3.816;2023-07-22T07:58:51;10.85;;;5.90;;
22764;SDS011;11549;50.852;3.816;2023-07-22T08:01:20;10.65;;;5.65;;
22764;SDS011;11549;50.852;3.816;2023-07-22T08:03:50;10.68;;;6.03;;
22764;SDS011;11549;50.852;3.816;2023-07-22T08:06:19;11.45;;;5.72;;
22764;SDS011;11549;50.852;3.816;2023-07-22T08:08:47;11.15;;;5.75;;
22764;SDS011;11549;50.852;3.816;2023-07-22T08:11:16;12.25;;;6.65;;
22764;SDS011;11549;50.852;3.816;2023-07-22T08:13:44;12.73;;;5.85;;
22764;SDS011;11549;50.852;3.816;2023-07-22T08:16:13;11.93;;;5.63;;
22764;SDS011;11549;50.852;3.816;2023-07-22T08:18:42;12.75;;;5.75;;
22764;SDS011;11549;50.852;3.816;2023-07-22T08:21:15;13.05;;;6.07;;
22764;SDS011;11549;50.852;3.816;2023-07-22T08:23:43;11.38;;;5.43;;
22764;SDS011;11549;50.852;3.816;2023-07-22T08:26:13;12.10;;;5.15;;
22764;SDS011;11549;50.852;3.816;2023-07-22T08:28:44;12.38;;;5.70;;
22764;SDS011;11549;50.852;3.816;2023-07-22T08:31:13;12.57;;;6.03;;
22764;SDS011;11549;50.852;3.816;2023-07-22T08:33:41;12.10;;;5.60;;
22764;SDS011;11549;50.852;3.816;2023-07-22T08:36:10;7.85;;;4.78;;
22764;SDS011;11549;50.852;3.816;2023-07-22T08:38:39;9.88;;;5.28;;
22764;SDS011;11549;50.852;3.816;2023-07-22T08:41:08;10.55;;;4.88;;
22764;SDS011;11549;50.852;3.816;2023-07-22T08:43:37;9.32;;;4.50;;
22764;SDS011;11549;50.852;3.816;2023-07-22T08:46:07;8.32;;;4.95;;
22764;SDS011;11549;50.852;3.816;2023-07-22T08:48:40;9.35;;;4.45;;
22764;SDS011;11549;50.852;3.816;2023-07-22T08:51:10;11.50;;;4.28;;
22764;SDS011;11549;50.852;3.816;2023-07-22T08:53:45;9.93;;;4.43;;
22764;SDS011;11549;50.852;3.816;2023-07-22T08:56:34;11.55;;;3.78;;
22764;SDS011;11549;50.852;3.816;2023-07-22T08:59:05;7.40;;;3.28;;
22764;SDS011;11549;50.852;3.816;2023-07-22T09:01:34;7.03;;;3.25;;
22764;SDS011;11549;50.852;3.816;2023-07-22T09:04:03;7.35;;;3.33;;
22764;SDS011;11549;50.852;3.816;2023-07-22T09:06:32;7.97;;;2.95;;
22764;SDS011;11549;50.852;3.816;2023-07-22T09:09:03;5.88;;;3.00;;
22764;SDS011;11549;50.852;3.816;2023-07-22T09:11:35;7.38;;;2.70;;
22764;SDS011;11549;50.852;3.816;2023-07-22T09:14:04;7.85;;;3.10;;
22764;SDS011;11549;50.852;3.816;2023-07-22T09:16:32;6.13;;;3.03;;
22764;SDS011;11549;50.852;3.816;2023-07-22T09:19:02;9.20;;;2.70;;
22764;SDS011;11549;50.852;3.816;2023-07-22T09:21:31;5.82;;;2.42;;
22764;SDS011;11549;50.852;3.816;2023-07-22T09:24:07;5.70;;;2.85;;
22764;SDS011;11549;50.852;3.816;2023-07-22T09:26:48;7.15;;;2.58;;
22764;SDS011;11549;50.852;3.816;2023-07-22T09:29:17;6.95;;;2.75;;
22764;SDS011;11549;50.852;3.816;2023-07-22T09:31:49;6.63;;;2.47;;
22764;SDS011;11549;50.852;3.816;2023-07-22T09:34:18;4.78;;;2.28;;
22764;SDS011;11549;50.852;3.816;2023-07-22T09:36:53;4.80;;;2.13;;
22764;SDS011;11549;50.852;3.816;2023-07-22T09:39:23;6.25;;;2.20;;
22764;SDS011;11549;50.852;3.816;2023-07-22T09:41:52;8.18;;;2.20;;
22764;SDS011;11549;50.852;3.816;2023-07-22T09:44:20;3.95;;;1.80;;
22764;SDS011;11549;50.852;3.816;2023-07-22T09:46:49;4.95;;;2.28;;
22764;SDS011;11549;50.852;3.816;2023-07-22T09:49:18;4.13;;;1.75;;
22764;SDS011;11549;50.852;3.816;2023-07-22T09:51:47;5.95;;;1.92;;
22764;SDS011;11549;50.852;3.816;2023-07-22T09:54:29;4.90;;;2.10;;
22764;SDS011;11549;50.852;3.816;2023-07-22T09:56:58;4.38;;;1.75;;
22764;SDS011;11549;50.852;3.816;2023-07-22T09:59:28;4.53;;;1.90;;
22764;SDS011;11549;50.852;3.816;2023-07-22T10:01:58;3.13;;;1.70;;
22764;SDS011;11549;50.852;3.816;2023-07-22T10:04:31;3.55;;;1.67;;
22764;SDS011;11549;50.852;3.816;2023-07-22T10:07:02;3.80;;;1.50;;
22764;SDS011;11549;50.852;3.816;2023-07-22T10:09:34;3.85;;;1.67;;
22764;SDS011;11549;50.852;3.816;2023-07-22T10:12:06;3.78;;;1.90;;
22764;SDS011;11549;50.852;3.816;2023-07-22T10:14:35;4.97;;;1.80;;
22764;SDS011;11549;50.852;3.816;2023-07-22T10:17:05;3.25;;;1.70;;
22764;SDS011;11549;50.852;3.816;2023-07-22T10:19:35;5.50;;;1.80;;
22764;SDS011;11549;50.852;3.816;2023-07-22T10:22:04;4.55;;;2.17;;
22764;SDS011;11549;50.852;3.816;2023-07-22T10:24:39;3.70;;;2.10;;
22764;SDS011;11549;50.852;3.816;2023-07-22T10:27:09;4.43;;;2.05;;
22764;SDS011;11549;50.852;3.816;2023-07-22T10:29:38;4.03;;;1.83;;
22764;SDS011;11549;50.852;3.816;2023-07-22T10:32:07;4.30;;;1.88;;
22764;SDS011;11549;50.852;3.816;2023-07-22T10:34:36;5.05;;;2.08;;
22764;SDS011;11549;50.852;3.816;2023-07-22T10:37:04;5.18;;;2.20;;
22764;SDS011;11549;50.852;3.816;2023-07-22T10:39:32;5.70;;;2.28;;
22764;SDS011;11549;50.852;3.816;2023-07-22T10:42:03;6.03;;;2.30;;
22764;SDS011;11549;50.852;3.816;2023-07-22T10:44:32;4.13;;;2.10;;
22764;SDS011;11549;50.852;3.816;2023-07-22T10:47:01;5.65;;;2.28;;
22764;SDS011;11549;50.852;3.816;2023-07-22T10:49:44;4.72;;;2.20;;
22764;SDS011;11549;50.852;3.816;2023-07-22T10:52:14;4.90;;;2.45;;
22764;SDS011;11549;50.852;3.816;2023-07-22T10:55:03;4.38;;;2.35;;
22764;SDS011;11549;50.852;3.816;2023-07-22T10:57:48;3.78;;;2.10;;
22764;SDS011;11549;50.852;3.816;2023-07-22T11:00:20;4.07;;;2.00;;
22764;SDS011;11549;50.852;3.816;2023-07-22T11:05:49;5.63;;;1.95;;
22764;SDS011;11549;50.852;3.816;2023-07-22T11:11:03;3.45;;;1.77;;
22764;SDS011;11549;50.852;3.816;2023-07-22T11:13:36;5.68;;;2.17;;
22764;SDS011;11549;50.852;3.816;2023-07-22T11:16:10;5.07;;;2.10;;
22764;SDS011;11549;50.852;3.816;2023-07-22T11:18:39;3.42;;;1.80;;
22764;SDS011;11549;50.852;3.816;2023-07-22T11:21:09;4.72;;;1.90;;
22764;SDS011;11549;50.852;3.816;2023-07-22T11:23:38;3.85;;;1.80;;
22764;SDS011;11549;50.852;3.816;2023-07-22T11:26:06;4.07;;;2.00;;
22764;SDS011;11549;50.852;3.816;2023-07-22T11:28:36;3.35;;;1.73;;
22764;SDS011;11549;50.852;3.816;2023-07-22T11:31:04;3.75;;;1.80;;
22764;SDS011;11549;50.852;3.816;2023-07-22T11:33:39;5.47;;;2.20;;
22764;SDS011;11549;50.852;3.816;2023-07-22T11:36:10;5.00;;;1.90;;
22764;SDS011;11549;50.852;3.816;2023-07-22T11:38:38;3.75;;;1.85;;
22764;SDS011;11549;50.852;3.816;2023-07-22T11:41:08;6.35;;;1.98;;
22764;SDS011;11549;50.852;3.816;2023-07-22T11:43:39;3.60;;;1.83;;
22764;SDS011;11549;50.852;3.816;2023-07-22T11:46:07;3.97;;;1.52;;
22764;SDS011;11549;50.852;3.816;2023-07-22T11:48:36;5.07;;;1.98;;
22764;SDS011;11549;50.852;3.816;2023-07-22T11:51:06;3.55;;;1.98;;
22764;SDS011;11549;50.852;3.816;2023-07-22T11:53:35;4.50;;;2.10;;
22764;SDS011;11549;50.852;3.816;2023-07-22T11:56:03;3.40;;;1.80;;
22764;SDS011;11549;50.852;3.816;2023-07-22T11:58:33;4.10;;;1.67;;
22764;SDS011;11549;50.852;3.816;2023-07-22T12:01:05;5.22;;;1.83;;
22764;SDS011;11549;50.852;3.816;2023-07-22T12:03:34;4.72;;;1.85;;
22764;SDS011;11549;50.852;3.816;2023-07-22T12:06:03;4.03;;;1.80;;
22764;SDS011;11549;50.852;3.816;2023-07-22T12:08:33;5.15;;;1.95;;
22764;SDS011;11549;50.852;3.816;2023-07-22T12:11:02;4.82;;;1.80;;
22764;SDS011;11549;50.852;3.816;2023-07-22T12:13:35;5.47;;;2.08;;
22764;SDS011;11549;50.852;3.816;2023-07-22T12:16:05;3.58;;;1.67;;
22764;SDS011;11549;50.852;3.816;2023-07-22T12:18:43;4.70;;;1.48;;
22764;SDS011;11549;50.852;3.816;2023-07-22T12:21:12;4.22;;;1.83;;
22764;SDS011;11549;50.852;3.816;2023-07-22T12:23:41;8.15;;;1.85;;
22764;SDS011;11549;50.852;3.816;2023-07-22T12:26:10;4.95;;;1.88;;
22764;SDS011;11549;50.852;3.816;2023-07-22T12:28:38;4.53;;;1.67;;
22764;SDS011;11549;50.852;3.816;2023-07-22T12:31:08;5.82;;;1.70;;
22764;SDS011;11549;50.852;3.816;2023-07-22T12:33:37;6.28;;;1.95;;
22764;SDS011;11549;50.852;3.816;2023-07-22T12:36:06;6.10;;;1.83;;
22764;SDS011;11549;50.852;3.816;2023-07-22T12:38:34;5.20;;;1.73;;
22764;SDS011;11549;50.852;3.816;2023-07-22T12:41:03;6.45;;;2.13;;
22764;SDS011;11549;50.852;3.816;2023-07-22T12:43:31;5.65;;;1.85;;
22764;SDS011;11549;50.852;3.816;2023-07-22T12:46:00;4.43;;;1.90;;
22764;SDS011;11549;50.852;3.816;2023-07-22T12:48:29;5.10;;;1.77;;
22764;SDS011;11549;50.852;3.816;2023-07-22T12:50:58;6.40;;;1.77;;
22764;SDS011;11549;50.852;3.816;2023-07-22T12:53:27;5.53;;;1.85;;
22764;SDS011;11549;50.852;3.816;2023-07-22T12:55:58;5.60;;;1.75;;
22764;SDS011;11549;50.852;3.816;2023-07-22T12:58:28;5.90;;;2.00;;
22764;SDS011;11549;50.852;3.816;2023-07-22T13:00:56;4.72;;;2.22;;
22764;SDS011;11549;50.852;3.816;2023-07-22T13:03:26;4.45;;;2.00;;
22764;SDS011;11549;50.852;3.816;2023-07-22T13:05:55;5.47;;;1.90;;
22764;SDS011;11549;50.852;3.816;2023-07-22T13:08:24;5.22;;;2.05;;
22764;SDS011;11549;50.852;3.816;2023-07-22T13:10:52;5.70;;;2.00;;
22764;SDS011;11549;50.852;3.816;2023-07-22T13:13:20;5.15;;;2.10;;
22764;SDS011;11549;50.852;3.816;2023-07-22T13:15:49;4.88;;;1.98;;
22764;SDS011;11549;50.852;3.816;2023-07-22T13:18:17;4.70;;;1.73;;
22764;SDS011;11549;50.852;3.816;2023-07-22T13:20:45;7.07;;;2.20;;
22764;SDS011;11549;50.852;3.816;2023-07-22T13:23:15;7.78;;;2.03;;
22764;SDS011;11549;50.852;3.816;2023-07-22T13:25:43;6.53;;;2.00;;
22764;SDS011;11549;50.852;3.816;2023-07-22T13:28:12;4.55;;;1.80;;
22764;SDS011;11549;50.852;3.816;2023-07-22T13:30:40;5.35;;;1.88;;
22764;SDS011;11549;50.852;3.816;2023-07-22T13:33:09;5.60;;;2.05;;
22764;SDS011;11549;50.852;3.816;2023-07-22T13:35:38;3.92;;;1.90;;
22764;SDS011;11549;50.852;3.816;2023-07-22T13:38:06;3.97;;;1.73;;
22764;SDS011;11549;50.852;3.816;2023-07-22T13:40:36;4.40;;;1.85;;
22764;SDS011;11549;50.852;3.816;2023-07-22T13:43:05;4.30;;;1.90;;
22764;SDS011;11549;50.852;3.816;2023-07-22T13:45:33;6.95;;;2.03;;
22764;SDS011;11549;50.852;3.816;2023-07-22T13:48:01;4.95;;;1.70;;
22764;SDS011;11549;50.852;3.816;2023-07-22T13:50:30;5.70;;;2.28;;
22764;SDS011;11549;50.852;3.816;2023-07-22T13:53:02;4.28;;;1.80;;
22764;SDS011;11549;50.852;3.816;2023-07-22T13:55:30;4.70;;;2.15;;
22764;SDS011;11549;50.852;3.816;2023-07-22T13:58:00;5.30;;;1.92;;
22764;SDS011;11549;50.852;3.816;2023-07-22T14:00:29;4.35;;;2.20;;
22764;SDS011;11549;50.852;3.816;2023-07-22T14:02:57;10.75;;;2.15;;
22764;SDS011;11549;50.852;3.816;2023-07-22T14:05:26;6.03;;;1.95;;
22764;SDS011;11549;50.852;3.816;2023-07-22T14:07:54;6.38;;;1.75;;
22764;SDS011;11549;50.852;3.816;2023-07-22T14:10:23;7.72;;;2.50;;
22764;SDS011;11549;50.852;3.816;2023-07-22T14:12:51;4.45;;;1.70;;
22764;SDS011;11549;50.852;3.816;2023-07-22T14:15:21;5.22;;;2.08;;
22764;SDS011;11549;50.852;3.816;2023-07-22T14:17:49;3.47;;;1.77;;
22764;SDS011;11549;50.852;3.816;2023-07-22T14:20:17;3.70;;;2.00;;
22764;SDS011;11549;50.852;3.816;2023-07-22T14:22:46;5.40;;;1.77;;
22764;SDS011;11549;50.852;3.816;2023-07-22T14:25:16;6.93;;;1.90;;
22764;SDS011;11549;50.852;3.816;2023-07-22T14:27:46;5.60;;;2.47;;
22764;SDS011;11549;50.852;3.816;2023-07-22T14:30:14;5.72;;;2.22;;
22764;SDS011;11549;50.852;3.816;2023-07-22T14:32:44;5.70;;;2.33;;
22764;SDS011;11549;50.852;3.816;2023-07-22T14:35:12;7.93;;;2.22;;
22764;SDS011;11549;50.852;3.816;2023-07-22T14:37:41;5.57;;;1.90;;
22764;SDS011;11549;50.852;3.816;2023-07-22T14:40:09;6.82;;;2.60;;
22764;SDS011;11549;50.852;3.816;2023-07-22T14:42:38;4.47;;;2.28;;
22764;SDS011;11549;50.852;3.816;2023-07-22T14:45:07;6.05;;;2.35;;
22764;SDS011;11549;50.852;3.816;2023-07-22T14:47:36;4.22;;;2.05;;
22764;SDS011;11549;50.852;3.816;2023-07-22T14:50:06;6.20;;;2.35;;
22764;SDS011;11549;50.852;3.816;2023-07-22T14:52:36;7.00;;;2.45;;
22764;SDS011;11549;50.852;3.816;2023-07-22T14:55:05;5.25;;;2.50;;